createdAt,value
2018-10-17T01:55:55.434Z,11.70
2018-10-17T05:56:49.477Z,10.80
2018-10-17T06:06:09.225Z,10.30
2018-10-17T07:15:04.342Z,10.30
2018-10-17T07:17:35.172Z,12.00
2018-10-17T07:20:08.517Z,12.10
2018-10-17T07:22:42.497Z,12.10
2018-10-17T07:25:18.111Z,12.30
2018-10-17T07:27:54.229Z,12.30
2018-10-17T07:30:37.847Z,12.50
2018-10-17T07:33:09.889Z,12.60
2018-10-17T07:35:47.279Z,12.70
2018-10-17T07:38:21.074Z,12.80
2018-10-17T07:42:35.089Z,12.90
2018-10-17T07:45:22.391Z,13.10
2018-10-17T08:00:34.432Z,14.00
2018-10-17T08:27:41.121Z,14.20
2018-10-17T08:30:42.716Z,15.40
2018-10-17T08:33:33.212Z,15.50
2018-10-17T08:39:44.750Z,15.80
2018-10-17T08:42:52.017Z,15.90
2018-10-17T08:45:57.530Z,16.10
2018-10-17T08:48:48.525Z,16.30
2018-10-17T08:55:14.098Z,16.60
2018-10-17T09:01:35.440Z,16.90
2018-10-17T09:18:33.856Z,17.20
2018-10-17T09:21:39.846Z,17.90
2018-10-17T09:24:31.829Z,17.90
2018-10-17T09:33:15.506Z,18.30
2018-10-17T09:50:12.403Z,18.80
2018-10-17T09:57:24.244Z,19.10
2018-10-17T10:01:12.871Z,19.20
2018-10-17T10:13:00.486Z,19.70
2018-10-17T10:24:12.957Z,20.20
2018-10-17T10:31:41.243Z,20.50
2018-10-17T10:34:28.710Z,20.50
2018-10-17T11:49:39.375Z,21.50
2018-10-17T11:52:14.155Z,31.80
2018-10-17T11:54:48.940Z,32.10
2018-10-17T11:57:22.273Z,32.70
2018-10-17T11:59:58.141Z,33.40
2018-10-17T12:02:32.213Z,34.10
2018-10-17T12:05:09.569Z,34.90
2018-10-17T12:07:44.649Z,35.70
2018-10-17T12:10:25.929Z,36.50
2018-10-17T12:13:01.489Z,37.10
2018-10-17T12:15:35.106Z,37.70
2018-10-17T12:18:10.386Z,38.10
2018-10-17T12:20:43.639Z,38.40
2018-10-17T12:23:18.299Z,38.70
2018-10-17T12:28:45.445Z,39.20
2018-10-17T12:31:17.808Z,39.10
2018-10-17T12:33:49.381Z,39.10
2018-10-17T12:36:21.586Z,39.10
2018-10-17T12:38:52.633Z,39.10
2018-10-17T12:41:24.031Z,39.20
2018-10-17T12:43:57.981Z,39.20
2018-10-17T12:46:29.847Z,39.40
2018-10-17T12:49:01.576Z,39.70
2018-10-17T12:51:37.652Z,39.70
2018-10-17T12:54:08.935Z,39.70
2018-10-17T12:56:40.848Z,39.80
2018-10-17T12:59:18.879Z,40.00
2018-10-17T13:01:53.646Z,40.00
2018-10-17T13:04:26.605Z,39.80
2018-10-17T13:06:57.321Z,39.70
2018-10-17T13:09:31.030Z,39.60
2018-10-17T13:12:03.892Z,39.60
2018-10-17T13:14:35.936Z,39.60
2018-10-17T13:17:07.153Z,39.50
2018-10-17T13:19:48.274Z,38.90
2018-10-17T13:22:40.327Z,37.80
2018-10-17T13:25:10.583Z,36.50
2018-10-17T13:27:39.839Z,35.10
2018-10-17T13:30:09.286Z,33.90
2018-10-17T13:32:40.765Z,32.80
2018-10-17T13:35:11.387Z,31.70
2018-10-17T13:37:40.797Z,30.80
2018-10-17T13:40:10.498Z,30.00
2018-10-17T13:42:40.124Z,29.50
2018-10-17T13:45:09.927Z,29.10
2018-10-17T13:47:46.867Z,28.80
2018-10-17T13:50:19.168Z,28.40
2018-10-17T13:52:50.251Z,28.10
2018-10-17T13:55:26.807Z,27.80
2018-10-17T13:57:58.788Z,27.40
2018-10-17T14:00:28.350Z,27.30
2018-10-17T14:02:58.854Z,27.00
2018-10-17T16:29:03.626Z,25.90
2018-10-17T18:32:17.274Z,17.20
2018-10-17T18:34:56.367Z,16.60
2018-10-17T18:37:29.290Z,16.60
2018-10-17T18:40:12.422Z,16.50
2018-10-17T19:22:23.683Z,16.30
2018-10-17T19:25:04.679Z,15.70
2018-10-17T19:27:48.498Z,15.50
2018-10-17T19:30:22.778Z,15.40
2018-10-17T20:54:24.058Z,14.90
2018-10-17T20:57:01.652Z,13.90
2018-10-17T20:59:54.409Z,13.80
2018-10-17T21:02:23.258Z,13.80
2018-10-17T21:05:30.660Z,13.80
2018-10-17T21:08:13.886Z,13.80
2018-10-17T21:13:54.243Z,13.80
2018-10-17T21:16:24.322Z,13.80
2018-10-17T21:18:59.534Z,13.80
2018-10-17T21:21:33.090Z,13.70
2018-10-17T21:24:05.235Z,13.70
2018-10-17T21:26:42.750Z,13.70
2018-10-17T21:29:12.639Z,13.60
2018-10-17T21:56:41.696Z,13.60
2018-10-17T21:59:18.035Z,13.40
2018-10-17T22:02:04.487Z,13.40
2018-10-17T22:04:33.112Z,13.30
2018-10-17T22:07:14.226Z,13.30
2018-10-17T22:09:43.767Z,13.30
2018-10-17T22:15:09.684Z,13.30
2018-10-17T22:17:52.505Z,13.30
2018-10-17T22:23:03.648Z,13.30
2018-10-17T22:25:36.954Z,13.30
2018-10-17T22:28:18.054Z,13.20
2018-10-17T22:33:05.460Z,13.20
2018-10-17T22:35:34.050Z,13.20
2018-10-17T22:38:06.913Z,13.20
2018-10-17T22:40:37.837Z,13.20
2018-10-17T22:57:02.597Z,13.20
2018-10-17T22:59:38.357Z,13.10
2018-10-17T23:02:16.262Z,13.10
2018-10-17T23:04:45.215Z,13.10
2018-10-17T23:07:14.547Z,13.10
2018-10-17T23:09:43.378Z,13.10
2018-10-17T23:12:12.280Z,13.00
2018-10-17T23:14:40.794Z,13.00
2018-10-17T23:17:09.370Z,13.00
2018-10-17T23:19:38.344Z,12.90
2018-10-17T23:22:07.312Z,12.90
2018-10-17T23:24:44.096Z,12.90
2018-10-17T23:27:12.712Z,12.80
2018-10-17T23:29:42.672Z,12.80
2018-10-17T23:34:50.669Z,12.80
2018-10-17T23:37:19.265Z,12.80
2018-10-17T23:39:47.768Z,12.70
2018-10-17T23:44:55.619Z,12.70
2018-10-17T23:47:24.149Z,12.70
2018-10-17T23:49:53.149Z,12.70
2018-10-17T23:52:22.706Z,12.70
2018-10-17T23:54:55.221Z,12.60
2018-10-17T23:57:26.101Z,12.60
2018-10-17T23:59:55.253Z,12.60
